Terminal Aerodrome Forecast
Issued by NWS Wakefield, VA

Home | Current Version | Previous Version | Text Only | Print | Product List | Glossary On
Versions: 1 2 3 4 5 6 7 8 9 10 11 12 13 14 15 16 17 18 19 20 21 22 23 24 25 26 27 28 29 30
229
FTUS41 KAKQ 260527
TAFECG
TAF
KECG 260527Z 2606/2706 27006KT 6SM -RA BR SCT015 OVC050
      TEMPO 2608/2609 BKN007
     FM260900 28006KT P6SM OVC007
     FM261300 28008KT 5SM BR BKN007
     FM261500 28007KT P6SM OVC015
     FM261800 27007KT P6SM BKN025
     FM262000 25006KT P6SM SCT025
     FM262300 17005KT P6SM SCT050=

USA.gov is the U.S. government's official web portal to all federal, state and local government web resources and services.